createdAt,value
2019-02-26T00:00:17.155Z,47.69
2019-02-26T00:02:52.990Z,47.71
2019-02-26T00:05:28.573Z,47.33
2019-02-26T00:08:02.784Z,47.19
2019-02-26T00:10:38.907Z,47.18
2019-02-26T00:13:11.635Z,47.35
2019-02-26T00:15:45.899Z,47.57
2019-02-26T00:18:21.495Z,47.51
2019-02-26T00:20:56.831Z,47.56
2019-02-26T00:23:31.001Z,47.37
2019-02-26T00:26:04.499Z,47.48
2019-02-26T00:28:39.080Z,47.53
2019-02-26T00:31:13.297Z,47.55
2019-02-26T00:33:46.922Z,47.54
2019-02-26T00:36:20.390Z,100.00
2019-02-26T00:38:53.919Z,47.70
2019-02-26T00:41:29.139Z,47.57
2019-02-26T00:44:04.302Z,47.61
2019-02-26T00:46:39.509Z,47.58
2019-02-26T00:49:13.210Z,47.88
2019-02-26T00:51:48.265Z,47.87
2019-02-26T00:54:24.315Z,48.13
2019-02-26T00:57:01.085Z,48.23
2019-02-26T00:59:32.388Z,48.45
2019-02-26T01:02:05.923Z,48.43
2019-02-26T01:04:41.374Z,48.24
2019-02-26T01:07:14.726Z,48.33
2019-02-26T01:09:50.147Z,48.58
2019-02-26T01:12:23.409Z,48.67
2019-02-26T01:14:56.828Z,48.49
2019-02-26T01:17:31.234Z,48.58
2019-02-26T01:20:08.758Z,48.71
2019-02-26T01:22:42.903Z,48.61
2019-02-26T01:25:18.537Z,48.75
2019-02-26T01:27:53.264Z,48.82
2019-02-26T01:30:29.419Z,48.68
2019-02-26T01:33:04.993Z,48.89
2019-02-26T01:35:38.290Z,48.95
2019-02-26T01:38:12.634Z,48.71
2019-02-26T01:40:50.716Z,48.73
2019-02-26T01:43:22.708Z,48.74
2019-02-26T01:45:56.209Z,48.84
2019-02-26T01:48:30.368Z,49.08
2019-02-26T01:51:04.991Z,49.27
2019-02-26T01:53:38.453Z,49.44
2019-02-26T01:56:12.058Z,49.43
2019-02-26T01:58:45.623Z,49.25
2019-02-26T02:01:21.277Z,49.23
2019-02-26T02:03:56.163Z,49.11
2019-02-26T02:06:30.331Z,49.35
2019-02-26T02:09:09.298Z,49.69
2019-02-26T02:11:40.835Z,49.52
2019-02-26T02:14:15.391Z,49.65
2019-02-26T02:16:49.547Z,49.46
2019-02-26T02:19:25.166Z,49.40
2019-02-26T02:21:58.349Z,49.58
2019-02-26T02:24:31.983Z,49.20
2019-02-26T02:27:05.512Z,49.36
2019-02-26T02:29:41.833Z,49.32
2019-02-26T02:32:14.034Z,49.30
2019-02-26T02:34:47.503Z,49.23
2019-02-26T02:37:23.873Z,49.10
2019-02-26T02:39:56.151Z,49.60
2019-02-26T02:42:29.604Z,49.72
2019-02-26T02:45:05.165Z,49.42
2019-02-26T02:47:38.838Z,49.17
2019-02-26T02:50:15.327Z,49.13
2019-02-26T02:52:50.934Z,49.33
2019-02-26T02:55:24.341Z,49.47
2019-02-26T02:57:59.937Z,49.51
2019-02-26T03:00:34.492Z,49.46
2019-02-26T03:03:08.255Z,49.21
2019-02-26T03:05:43.828Z,49.41
2019-02-26T03:08:19.334Z,49.18
2019-02-26T03:10:52.113Z,49.07
2019-02-26T03:13:27.896Z,49.62
2019-02-26T03:16:01.649Z,49.55
2019-02-26T03:18:35.288Z,49.50
2019-02-26T03:21:08.891Z,49.53
2019-02-26T03:23:43.505Z,49.75
2019-02-26T03:26:20.331Z,49.58
2019-02-26T03:28:53.280Z,100.00
2019-02-26T03:31:31.015Z,50.09
2019-02-26T03:34:08.851Z,50.28
2019-02-26T03:36:39.949Z,100.00
2019-02-26T03:39:12.669Z,49.96
2019-02-26T03:41:48.408Z,49.95
2019-02-26T03:44:21.271Z,50.29
2019-02-26T03:46:54.781Z,50.49
2019-02-26T03:49:28.276Z,50.17
2019-02-26T03:52:01.868Z,50.21
2019-02-26T03:54:37.419Z,50.16
2019-02-26T03:57:11.448Z,50.13
2019-02-26T03:59:45.781Z,50.12
2019-02-26T04:02:23.519Z,50.11
2019-02-26T04:04:57.093Z,50.28
2019-02-26T04:07:30.362Z,50.20
2019-02-26T04:10:05.781Z,50.12
2019-02-26T04:12:42.346Z,50.17
2019-02-26T04:15:16.637Z,50.24
2019-02-26T04:17:50.131Z,50.37
2019-02-26T04:20:26.969Z,50.40
2019-02-26T04:22:58.804Z,50.68
2019-02-26T04:25:49.506Z,50.45
2019-02-26T04:28:37.127Z,50.45
2019-02-26T04:31:38.619Z,50.30
2019-02-26T04:34:26.932Z,50.37
2019-02-26T04:37:07.280Z,50.22
2019-02-26T04:40:12.056Z,50.37
2019-02-26T04:43:10.033Z,50.54
2019-02-26T04:45:48.178Z,50.53
2019-02-26T04:48:29.130Z,50.66
2019-02-26T04:51:03.377Z,50.93
2019-02-26T04:53:36.851Z,50.91
2019-02-26T04:56:12.797Z,50.85
2019-02-26T04:58:47.710Z,50.68
2019-02-26T05:01:20.639Z,50.70
2019-02-26T05:03:54.063Z,50.76
2019-02-26T05:06:27.657Z,51.04
2019-02-26T05:09:02.840Z,51.17
2019-02-26T05:11:40.412Z,51.28
2019-02-26T05:14:12.298Z,51.40
2019-02-26T05:16:46.641Z,51.59
2019-02-26T05:19:21.663Z,51.46
2019-02-26T05:21:56.769Z,51.52
2019-02-26T05:24:30.530Z,51.71
2019-02-26T05:27:15.320Z,51.63
2019-02-26T05:29:49.200Z,51.67
2019-02-26T05:32:25.034Z,51.65
2019-02-26T05:34:58.613Z,51.45
2019-02-26T05:37:34.816Z,51.41
2019-02-26T05:40:10.384Z,51.46
2019-02-26T05:42:43.109Z,51.28
2019-02-26T05:45:16.590Z,100.00
2019-02-26T05:47:51.345Z,51.32
2019-02-26T05:50:25.515Z,51.21
2019-02-26T05:53:01.807Z,51.20
2019-02-26T05:55:34.292Z,51.27
2019-02-26T05:58:09.966Z,51.22
2019-02-26T06:00:42.864Z,51.18
2019-02-26T06:03:18.519Z,51.11
2019-02-26T06:05:52.811Z,50.88
2019-02-26T06:08:30.200Z,50.95
2019-02-26T06:11:01.826Z,50.99
2019-02-26T06:13:37.691Z,50.93
2019-02-26T06:16:10.487Z,50.93
2019-02-26T06:18:46.469Z,50.80
2019-02-26T06:21:20.964Z,50.97
2019-02-26T06:23:55.161Z,50.89
2019-02-26T06:26:32.661Z,50.91
2019-02-26T06:29:03.833Z,50.81
2019-02-26T06:31:39.581Z,50.81
2019-02-26T06:34:14.335Z,50.82
2019-02-26T06:36:48.871Z,50.85
2019-02-26T06:39:24.493Z,50.79
2019-02-26T06:41:58.123Z,50.67
2019-02-26T06:44:31.727Z,50.75
2019-02-26T06:47:06.807Z,50.62
2019-02-26T06:49:41.405Z,50.80
2019-02-26T06:52:17.923Z,50.87
2019-02-26T06:54:56.918Z,50.82
2019-02-26T06:57:26.068Z,50.86
2019-02-26T07:00:01.157Z,50.83
2019-02-26T07:02:34.857Z,50.91
2019-02-26T07:05:10.902Z,50.95
2019-02-26T07:07:44.448Z,51.02
2019-02-26T07:10:21.492Z,51.02
2019-02-26T07:12:53.188Z,50.93
2019-02-26T07:15:28.813Z,50.97
2019-02-26T07:18:04.455Z,50.99
2019-02-26T07:20:39.976Z,51.16
2019-02-26T07:23:12.939Z,51.12
2019-02-26T07:25:47.542Z,50.85
2019-02-26T07:28:22.835Z,50.70
2019-02-26T07:30:56.254Z,50.70
2019-02-26T07:33:32.172Z,50.82
2019-02-26T07:36:05.004Z,50.77
2019-02-26T07:38:41.147Z,50.63
2019-02-26T07:41:13.657Z,50.33
2019-02-26T07:43:49.277Z,50.21
2019-02-26T07:46:22.599Z,50.16
2019-02-26T07:48:57.180Z,49.98
2019-02-26T07:51:33.367Z,49.75
2019-02-26T07:54:06.423Z,49.55
2019-02-26T07:56:39.965Z,49.53
2019-02-26T07:59:15.047Z,49.24
2019-02-26T08:01:49.728Z,48.88
2019-02-26T08:04:23.261Z,48.50
2019-02-26T08:06:59.059Z,48.24
2019-02-26T08:09:32.071Z,48.07
2019-02-26T08:12:07.186Z,47.71
2019-02-26T08:14:42.758Z,47.36
2019-02-26T08:17:16.092Z,47.38
2019-02-26T08:19:49.669Z,47.17
2019-02-26T08:22:24.755Z,46.98
2019-02-26T08:24:58.504Z,46.89
2019-02-26T08:27:33.873Z,46.93
2019-02-26T08:30:12.133Z,46.91
2019-02-26T08:32:48.453Z,46.61
2019-02-26T08:35:20.819Z,46.32
2019-02-26T08:37:54.436Z,46.51
2019-02-26T08:40:27.935Z,46.29
2019-02-26T08:43:01.471Z,45.86
2019-02-26T08:45:34.987Z,45.64
2019-02-26T08:48:08.476Z,45.71
2019-02-26T08:50:43.958Z,46.16
2019-02-26T08:53:17.248Z,45.89
2019-02-26T08:55:53.234Z,44.78
2019-02-26T08:58:28.145Z,44.43
2019-02-26T09:01:01.219Z,43.82
2019-02-26T09:03:40.738Z,42.76
2019-02-26T09:06:13.256Z,42.56
2019-02-26T09:08:44.920Z,41.63
2019-02-26T09:11:18.448Z,41.13
2019-02-26T09:13:51.871Z,40.63
2019-02-26T09:16:27.792Z,39.78
2019-02-26T09:19:00.564Z,39.53
2019-02-26T09:21:34.689Z,37.90
2019-02-26T09:24:09.470Z,37.51
2019-02-26T09:26:42.962Z,36.92
2019-02-26T09:29:17.385Z,35.86
2019-02-26T09:31:51.719Z,35.35
2019-02-26T09:34:26.693Z,34.30
2019-02-26T09:37:02.575Z,34.57
2019-02-26T09:39:36.477Z,33.71
2019-02-26T09:42:10.936Z,33.71
2019-02-26T09:44:44.693Z,33.65
2019-02-26T09:47:21.344Z,30.55
2019-02-26T09:49:56.177Z,31.10
2019-02-26T09:52:32.495Z,30.15
2019-02-26T09:55:14.475Z,27.73
2019-02-26T09:57:48.047Z,27.58
2019-02-26T10:00:25.428Z,26.76
2019-02-26T10:02:57.503Z,27.15
2019-02-26T10:05:31.414Z,26.68
2019-02-26T10:08:05.390Z,26.92
2019-02-26T10:10:39.796Z,27.77
2019-02-26T10:13:13.555Z,28.36
2019-02-26T10:15:46.916Z,28.57
2019-02-26T10:18:21.143Z,29.00
2019-02-26T10:20:55.527Z,29.46
2019-02-26T10:23:32.776Z,29.29
2019-02-26T10:26:05.753Z,29.18
2019-02-26T10:28:42.533Z,27.90
2019-02-26T10:31:14.650Z,28.71
2019-02-26T10:33:50.403Z,27.67
2019-02-26T10:36:23.300Z,28.35
2019-02-26T10:38:57.753Z,27.38
2019-02-26T10:41:34.238Z,28.46
2019-02-26T10:44:07.327Z,27.22
2019-02-26T10:46:42.559Z,27.20
2019-02-26T10:49:16.012Z,24.11
2019-02-26T10:51:49.395Z,23.45
2019-02-26T10:54:22.879Z,21.69
2019-02-26T10:56:57.373Z,22.24
2019-02-26T10:59:31.409Z,22.08
2019-02-26T11:02:04.865Z,22.72
2019-02-26T11:04:41.201Z,23.33
2019-02-26T11:07:14.281Z,21.76
2019-02-26T11:09:51.058Z,22.10
2019-02-26T11:12:25.191Z,23.01
2019-02-26T11:14:59.017Z,22.63
2019-02-26T11:17:33.593Z,23.99
2019-02-26T11:20:10.201Z,23.63
2019-02-26T11:22:44.795Z,22.37
2019-02-26T11:25:21.444Z,22.51
2019-02-26T11:27:54.394Z,22.25
2019-02-26T11:30:30.219Z,24.02
2019-02-26T11:33:05.892Z,23.17
2019-02-26T11:35:39.721Z,22.69
2019-02-26T11:38:14.933Z,22.81
2019-02-26T11:40:48.835Z,22.39
2019-02-26T11:43:23.913Z,22.35
2019-02-26T11:45:59.233Z,23.28
2019-02-26T11:48:33.216Z,20.76
2019-02-26T11:51:06.999Z,20.48
2019-02-26T11:53:40.482Z,20.48
2019-02-26T11:56:15.857Z,17.94
2019-02-26T11:58:49.258Z,18.14
2019-02-26T12:01:22.762Z,18.38
2019-02-26T12:04:02.516Z,16.93
2019-02-26T12:06:31.358Z,17.51
2019-02-26T12:09:08.762Z,18.68
2019-02-26T12:11:41.767Z,18.24
2019-02-26T12:14:18.409Z,17.53
2019-02-26T12:16:50.700Z,17.18
2019-02-26T12:19:25.668Z,15.42
2019-02-26T12:22:02.808Z,15.30
2019-02-26T12:24:36.181Z,13.37
2019-02-26T12:27:13.325Z,14.95
2019-02-26T12:29:48.143Z,15.44
2019-02-26T12:32:22.333Z,15.42
2019-02-26T12:34:55.727Z,16.38
2019-02-26T12:37:29.216Z,16.28
2019-02-26T12:40:02.668Z,14.22
2019-02-26T12:42:37.569Z,15.05
2019-02-26T12:45:14.477Z,15.03
2019-02-26T12:47:49.445Z,17.26
2019-02-26T12:50:28.985Z,16.88
2019-02-26T12:52:59.733Z,18.67
2019-02-26T12:55:38.209Z,18.75
2019-02-26T12:58:11.156Z,18.49
2019-02-26T13:00:45.510Z,19.58
2019-02-26T13:03:19.883Z,19.36
2019-02-26T13:05:54.144Z,18.73
2019-02-26T13:08:27.556Z,19.06
2019-02-26T13:11:01.025Z,19.42
2019-02-26T13:13:34.519Z,18.72
2019-02-26T13:16:07.974Z,18.47
2019-02-26T13:18:41.561Z,18.70
2019-02-26T13:21:17.164Z,19.29
2019-02-26T13:23:50.592Z,19.73
2019-02-26T13:26:24.160Z,20.25
2019-02-26T13:29:00.479Z,20.23
2019-02-26T13:31:36.016Z,19.89
2019-02-26T13:34:14.040Z,20.56
2019-02-26T13:36:47.542Z,21.52
2019-02-26T13:39:25.560Z,20.47
2019-02-26T13:41:58.595Z,21.24
2019-02-26T13:44:29.040Z,20.94
2019-02-26T13:47:02.421Z,21.39
2019-02-26T13:49:35.879Z,21.00
2019-02-26T13:52:09.416Z,21.25
2019-02-26T13:54:42.917Z,21.10
2019-02-26T13:57:16.559Z,21.09
2019-02-26T13:59:49.998Z,21.51
2019-02-26T14:02:23.475Z,20.34
2019-02-26T14:04:56.911Z,20.68
2019-02-26T14:07:30.363Z,21.00
2019-02-26T14:10:06.024Z,21.13
2019-02-26T14:12:39.573Z,21.02
2019-02-26T14:15:16.592Z,21.43
2019-02-26T14:17:50.096Z,20.71
2019-02-26T14:20:23.700Z,20.83
2019-02-26T14:22:57.228Z,20.88
2019-02-26T14:25:30.774Z,21.12
2019-02-26T14:28:04.395Z,21.23
2019-02-26T14:30:37.784Z,20.67
2019-02-26T14:33:11.376Z,21.06
2019-02-26T14:35:44.954Z,21.35
2019-02-26T14:38:18.414Z,20.32
2019-02-26T14:40:51.874Z,20.49
2019-02-26T14:43:25.305Z,20.67
2019-02-26T14:45:58.840Z,20.80
2019-02-26T14:48:32.324Z,21.22
2019-02-26T14:51:05.861Z,21.49
2019-02-26T14:53:39.360Z,21.72
2019-02-26T14:56:12.864Z,21.75
2019-02-26T14:58:46.417Z,21.21
2019-02-26T15:01:19.815Z,21.56
2019-02-26T15:03:53.278Z,21.04
2019-02-26T15:06:26.776Z,20.87
2019-02-26T15:09:00.211Z,20.60
2019-02-26T15:11:33.841Z,20.64
2019-02-26T15:14:07.650Z,20.71
2019-02-26T15:16:41.142Z,20.41
2019-02-26T15:19:14.525Z,20.23
2019-02-26T15:21:48.021Z,20.71
2019-02-26T15:24:21.516Z,20.26
2019-02-26T15:26:54.901Z,20.80
2019-02-26T15:29:28.458Z,21.02
2019-02-26T15:32:01.923Z,21.36
2019-02-26T15:34:35.381Z,21.93
2019-02-26T15:37:08.995Z,22.50
2019-02-26T15:39:42.433Z,22.82
2019-02-26T15:42:16.347Z,23.25
2019-02-26T15:44:49.792Z,23.65
2019-02-26T15:47:23.358Z,23.58
2019-02-26T15:49:56.942Z,23.53
2019-02-26T15:52:30.391Z,23.31
2019-02-26T15:55:04.535Z,23.65
2019-02-26T15:57:37.991Z,23.92
2019-02-26T16:00:15.385Z,24.47
2019-02-26T16:02:50.261Z,24.56
2019-02-26T16:05:35.715Z,24.56
2019-02-26T16:08:09.574Z,24.85
2019-02-26T16:10:43.276Z,25.38
2019-02-26T16:13:16.705Z,25.35
2019-02-26T16:15:50.158Z,25.67
2019-02-26T16:18:23.688Z,25.70
2019-02-26T16:20:57.153Z,25.91
2019-02-26T16:23:30.631Z,25.71
2019-02-26T16:26:05.700Z,26.07
2019-02-26T16:28:39.587Z,26.35
2019-02-26T16:31:13.156Z,26.40
2019-02-26T16:33:46.795Z,27.64
2019-02-26T16:36:21.041Z,27.55
2019-02-26T16:38:54.487Z,27.79
2019-02-26T16:41:27.885Z,28.00
2019-02-26T16:44:01.446Z,28.89
2019-02-26T16:46:35.191Z,28.87
2019-02-26T16:49:08.841Z,29.04
2019-02-26T16:51:42.304Z,29.07
2019-02-26T16:54:15.732Z,29.40
2019-02-26T16:56:49.411Z,30.01
2019-02-26T16:59:22.939Z,30.54
2019-02-26T17:01:57.006Z,31.19
2019-02-26T17:04:30.961Z,31.36
2019-02-26T17:07:04.564Z,31.26
2019-02-26T17:09:38.283Z,31.63
2019-02-26T17:12:11.866Z,32.00
2019-02-26T17:14:45.240Z,32.38
2019-02-26T17:17:18.796Z,32.82
2019-02-26T17:19:52.195Z,33.42
2019-02-26T17:22:25.659Z,33.50
2019-02-26T17:24:59.427Z,33.70
2019-02-26T17:27:33.002Z,34.00
2019-02-26T17:30:09.664Z,33.92
2019-02-26T17:32:43.440Z,34.17
2019-02-26T17:35:17.475Z,34.22
2019-02-26T17:37:51.031Z,34.42
2019-02-26T17:40:25.837Z,34.46
2019-02-26T17:42:59.411Z,34.54
2019-02-26T17:45:37.225Z,35.01
2019-02-26T17:48:13.325Z,34.68
2019-02-26T17:50:48.536Z,34.75
2019-02-26T17:53:22.113Z,34.94
2019-02-26T17:55:56.201Z,36.06
2019-02-26T17:58:30.623Z,100.00
2019-02-26T18:01:05.583Z,36.77
2019-02-26T18:03:39.155Z,36.74
2019-02-26T18:06:13.159Z,36.84
2019-02-26T18:08:48.131Z,36.65
2019-02-26T18:11:23.713Z,37.07
2019-02-26T18:13:57.781Z,37.60
2019-02-26T18:16:34.487Z,37.87
2019-02-26T18:19:12.154Z,38.07
2019-02-26T18:21:43.551Z,38.35
2019-02-26T18:24:17.501Z,38.69
2019-02-26T18:26:50.989Z,38.98
2019-02-26T18:29:25.670Z,39.25
2019-02-26T18:32:01.155Z,39.13
2019-02-26T18:34:34.558Z,38.86
2019-02-26T18:37:08.144Z,38.98
2019-02-26T18:39:41.500Z,39.65
2019-02-26T18:42:15.639Z,39.80
2019-02-26T18:44:49.043Z,39.70
2019-02-26T18:47:22.546Z,40.04
2019-02-26T18:49:56.062Z,40.28
2019-02-26T18:52:29.572Z,40.56
2019-02-26T18:55:03.128Z,40.82
2019-02-26T18:57:36.603Z,40.65
2019-02-26T19:00:25.677Z,41.04
2019-02-26T19:02:57.154Z,41.24
2019-02-26T19:05:30.613Z,41.25
2019-02-26T19:08:05.820Z,41.17
2019-02-26T19:10:39.553Z,41.24
2019-02-26T19:13:13.067Z,41.68
2019-02-26T19:15:47.926Z,41.32
2019-02-26T19:18:21.706Z,41.40
2019-02-26T19:20:55.196Z,41.57
2019-02-26T19:23:31.476Z,41.65
2019-02-26T19:26:03.906Z,41.96
